sensor_id;sensor_type;location;lat;lon;timestamp;temperature;humidity
12156;DHT22;6141;49.092;8.516;2022-10-03T00:09:47;15.00;83.70
12156;DHT22;6141;49.092;8.516;2022-10-03T00:13:39;14.90;84.10
12156;DHT22;6141;49.092;8.516;2022-10-03T00:17:21;14.70;84.50
12156;DHT22;6141;49.092;8.516;2022-10-03T00:20:47;14.70;85.10
12156;DHT22;6141;49.092;8.516;2022-10-03T00:24:21;14.70;85.30
12156;DHT22;6141;49.092;8.516;2022-10-03T00:28:07;14.70;84.80
12156;DHT22;6141;49.092;8.516;2022-10-03T00:31:11;14.70;84.40
12156;DHT22;6141;49.092;8.516;2022-10-03T00:33:53;14.50;84.70
12156;DHT22;6141;49.092;8.516;2022-10-03T00:36:35;14.50;85.20
12156;DHT22;6141;49.092;8.516;2022-10-03T00:39:33;14.40;86.00
12156;DHT22;6141;49.092;8.516;2022-10-03T00:42:30;14.30;86.10
12156;DHT22;6141;49.092;8.516;2022-10-03T00:45:26;14.30;86.60
12156;DHT22;6141;49.092;8.516;2022-10-03T00:48:39;14.20;87.10
12156;DHT22;6141;49.092;8.516;2022-10-03T00:51:26;14.40;87.70
12156;DHT22;6141;49.092;8.516;2022-10-03T00:57:03;14.40;86.80
12156;DHT22;6141;49.092;8.516;2022-10-03T01:02:48;14.40;87.00
12156;DHT22;6141;49.092;8.516;2022-10-03T01:05:30;14.60;87.20
12156;DHT22;6141;49.092;8.516;2022-10-03T01:08:39;14.60;86.80
12156;DHT22;6141;49.092;8.516;2022-10-03T01:11:23;14.60;86.60
12156;DHT22;6141;49.092;8.516;2022-10-03T01:18:02;14.70;85.80
12156;DHT22;6141;49.092;8.516;2022-10-03T01:22:15;14.70;85.10
12156;DHT22;6141;49.092;8.516;2022-10-03T01:43:58;14.90;84.70
12156;DHT22;6141;49.092;8.516;2022-10-03T01:47:45;14.70;84.10
12156;DHT22;6141;49.092;8.516;2022-10-03T01:51:00;14.50;83.40
12156;DHT22;6141;49.092;8.516;2022-10-03T01:54:19;14.20;85.60
12156;DHT22;6141;49.092;8.516;2022-10-03T01:57:37;14.20;85.50
12156;DHT22;6141;49.092;8.516;2022-10-03T03:00:31;14.20;83.30
12156;DHT22;6141;49.092;8.516;2022-10-03T03:08:52;14.00;84.50
12156;DHT22;6141;49.092;8.516;2022-10-03T03:27:53;14.20;83.40
12156;DHT22;6141;49.092;8.516;2022-10-03T03:31:12;14.10;84.40
12156;DHT22;6141;49.092;8.516;2022-10-03T03:34:11;14.20;83.50
12156;DHT22;6141;49.092;8.516;2022-10-03T03:37:21;14.30;82.90
12156;DHT22;6141;49.092;8.516;2022-10-03T03:40:26;14.30;81.90
12156;DHT22;6141;49.092;8.516;2022-10-03T03:43:20;14.30;81.10
12156;DHT22;6141;49.092;8.516;2022-10-03T03:46:04;14.30;81.00
12156;DHT22;6141;49.092;8.516;2022-10-03T03:48:54;14.30;80.20
12156;DHT22;6141;49.092;8.516;2022-10-03T03:51:32;14.40;80.20
12156;DHT22;6141;49.092;8.516;2022-10-03T03:54:41;14.30;79.30
12156;DHT22;6141;49.092;8.516;2022-10-03T03:57:24;14.30;80.20
12156;DHT22;6141;49.092;8.516;2022-10-03T04:00:13;14.10;79.70
12156;DHT22;6141;49.092;8.516;2022-10-03T04:02:56;14.20;80.80
12156;DHT22;6141;49.092;8.516;2022-10-03T04:05:53;14.20;80.20
12156;DHT22;6141;49.092;8.516;2022-10-03T04:08:40;14.30;80.20
12156;DHT22;6141;49.092;8.516;2022-10-03T04:11:23;14.20;80.10
12156;DHT22;6141;49.092;8.516;2022-10-03T04:14:21;14.30;80.20
12156;DHT22;6141;49.092;8.516;2022-10-03T04:17:14;14.10;80.00
12156;DHT22;6141;49.092;8.516;2022-10-03T04:20:13;14.00;80.80
12156;DHT22;6141;49.092;8.516;2022-10-03T04:22:56;14.10;80.70
12156;DHT22;6141;49.092;8.516;2022-10-03T04:25:45;14.10;80.40
12156;DHT22;6141;49.092;8.516;2022-10-03T04:28:35;14.20;80.30
12156;DHT22;6141;49.092;8.516;2022-10-03T04:31:28;14.20;80.10
12156;DHT22;6141;49.092;8.516;2022-10-03T04:34:18;14.10;80.00
12156;DHT22;6141;49.092;8.516;2022-10-03T04:37:08;14.00;79.90
12156;DHT22;6141;49.092;8.516;2022-10-03T04:39:55;13.90;79.90
12156;DHT22;6141;49.092;8.516;2022-10-03T04:42:45;13.90;80.80
12156;DHT22;6141;49.092;8.516;2022-10-03T04:45:45;13.90;80.60
12156;DHT22;6141;49.092;8.516;2022-10-03T04:48:35;14.10;80.40
12156;DHT22;6141;49.092;8.516;2022-10-03T04:51:19;13.90;80.20
12156;DHT22;6141;49.092;8.516;2022-10-03T04:54:02;14.00;80.30
12156;DHT22;6141;49.092;8.516;2022-10-03T04:56:53;14.10;80.00
12156;DHT22;6141;49.092;8.516;2022-10-03T04:59:52;14.00;79.90
12156;DHT22;6141;49.092;8.516;2022-10-03T05:02:41;14.10;80.00
12156;DHT22;6141;49.092;8.516;2022-10-03T05:05:28;13.90;79.00
12156;DHT22;6141;49.092;8.516;2022-10-03T05:08:15;13.80;79.70
12156;DHT22;6141;49.092;8.516;2022-10-03T05:10:53;13.80;79.70
12156;DHT22;6141;49.092;8.516;2022-10-03T05:13:37;13.80;78.10
12156;DHT22;6141;49.092;8.516;2022-10-03T05:16:16;13.90;78.70
12156;DHT22;6141;49.092;8.516;2022-10-03T05:19:28;13.80;78.60
12156;DHT22;6141;49.092;8.516;2022-10-03T05:22:41;13.80;79.70
12156;DHT22;6141;49.092;8.516;2022-10-03T05:25:36;13.80;79.70
12156;DHT22;6141;49.092;8.516;2022-10-03T05:28:24;13.70;78.90
12156;DHT22;6141;49.092;8.516;2022-10-03T05:31:49;13.70;79.50
12156;DHT22;6141;49.092;8.516;2022-10-03T05:35:18;13.90;79.80
12156;DHT22;6141;49.092;8.516;2022-10-03T05:41:03;13.80;79.70
12156;DHT22;6141;49.092;8.516;2022-10-03T05:43:48;13.70;79.70
12156;DHT22;6141;49.092;8.516;2022-10-03T05:49:42;13.30;80.80
12156;DHT22;6141;49.092;8.516;2022-10-03T05:52:37;13.00;81.90
12156;DHT22;6141;49.092;8.516;2022-10-03T05:55:31;13.00;83.10
12156;DHT22;6141;49.092;8.516;2022-10-03T05:58:37;13.00;82.70
12156;DHT22;6141;49.092;8.516;2022-10-03T06:01:45;13.00;82.40
12156;DHT22;6141;49.092;8.516;2022-10-03T06:07:28;13.10;82.30
12156;DHT22;6141;49.092;8.516;2022-10-03T06:10:25;13.30;81.80
12156;DHT22;6141;49.092;8.516;2022-10-03T06:13:22;13.30;81.10
12156;DHT22;6141;49.092;8.516;2022-10-03T06:16:29;13.40;80.00
12156;DHT22;6141;49.092;8.516;2022-10-03T06:19:46;13.40;79.80
12156;DHT22;6141;49.092;8.516;2022-10-03T06:23:06;13.50;79.50
12156;DHT22;6141;49.092;8.516;2022-10-03T06:26:04;13.50;79.50
12156;DHT22;6141;49.092;8.516;2022-10-03T06:43:22;13.50;80.20
12156;DHT22;6141;49.092;8.516;2022-10-03T06:46:13;13.70;79.70
12156;DHT22;6141;49.092;8.516;2022-10-03T06:49:07;13.90;80.20
12156;DHT22;6141;49.092;8.516;2022-10-03T06:51:53;13.90;80.50
12156;DHT22;6141;49.092;8.516;2022-10-03T06:55:03;13.90;80.20
12156;DHT22;6141;49.092;8.516;2022-10-03T06:58:06;14.00;81.00
12156;DHT22;6141;49.092;8.516;2022-10-03T07:00:52;13.90;81.10
12156;DHT22;6141;49.092;8.516;2022-10-03T07:03:52;14.00;80.70
12156;DHT22;6141;49.092;8.516;2022-10-03T07:06:44;14.00;81.20
12156;DHT22;6141;49.092;8.516;2022-10-03T07:10:02;14.10;81.10
12156;DHT22;6141;49.092;8.516;2022-10-03T07:13:13;14.10;81.50
12156;DHT22;6141;49.092;8.516;2022-10-03T07:17:02;14.10;81.70
12156;DHT22;6141;49.092;8.516;2022-10-03T07:21:26;14.10;81.90
12156;DHT22;6141;49.092;8.516;2022-10-03T07:28:21;14.10;82.40
12156;DHT22;6141;49.092;8.516;2022-10-03T07:31:04;14.10;83.00
12156;DHT22;6141;49.092;8.516;2022-10-03T07:48:42;14.70;82.70
12156;DHT22;6141;49.092;8.516;2022-10-03T07:58:03;14.70;82.90
12156;DHT22;6141;49.092;8.516;2022-10-03T08:06:30;15.00;83.00
12156;DHT22;6141;49.092;8.516;2022-10-03T08:14:40;15.00;82.30
12156;DHT22;6141;49.092;8.516;2022-10-03T08:26:07;15.00;82.20
12156;DHT22;6141;49.092;8.516;2022-10-03T08:29:43;15.30;83.70
12156;DHT22;6141;49.092;8.516;2022-10-03T08:33:07;15.50;81.90
12156;DHT22;6141;49.092;8.516;2022-10-03T08:39:57;15.70;80.70
12156;DHT22;6141;49.092;8.516;2022-10-03T08:46:04;15.70;79.40
12156;DHT22;6141;49.092;8.516;2022-10-03T08:49:12;15.80;80.20
12156;DHT22;6141;49.092;8.516;2022-10-03T08:51:58;15.80;79.40
12156;DHT22;6141;49.092;8.516;2022-10-03T08:54:56;15.80;78.60
12156;DHT22;6141;49.092;8.516;2022-10-03T09:08:32;16.00;78.50
12156;DHT22;6141;49.092;8.516;2022-10-03T09:11:29;16.10;77.80
12156;DHT22;6141;49.092;8.516;2022-10-03T09:14:39;16.00;76.60
12156;DHT22;6141;49.092;8.516;2022-10-03T09:23:53;16.30;76.80
12156;DHT22;6141;49.092;8.516;2022-10-03T09:26:47;16.50;75.40
12156;DHT22;6141;49.092;8.516;2022-10-03T09:35:48;16.40;75.20
12156;DHT22;6141;49.092;8.516;2022-10-03T09:39:02;16.60;75.00
12156;DHT22;6141;49.092;8.516;2022-10-03T09:42:08;16.60;74.40
12156;DHT22;6141;49.092;8.516;2022-10-03T09:45:03;16.70;72.70
12156;DHT22;6141;49.092;8.516;2022-10-03T09:57:12;16.90;71.60
12156;DHT22;6141;49.092;8.516;2022-10-03T10:00:13;17.10;71.70
12156;DHT22;6141;49.092;8.516;2022-10-03T10:06:11;17.10;71.50
12156;DHT22;6141;49.092;8.516;2022-10-03T10:15:16;16.90;71.40
12156;DHT22;6141;49.092;8.516;2022-10-03T10:23:59;17.00;70.50
12156;DHT22;6141;49.092;8.516;2022-10-03T10:26:55;16.90;68.60
12156;DHT22;6141;49.092;8.516;2022-10-03T10:33:14;17.70;69.10
12156;DHT22;6141;49.092;8.516;2022-10-03T10:46:48;18.30;66.20
12156;DHT22;6141;49.092;8.516;2022-10-03T11:00:18;18.30;66.50
12156;DHT22;6141;49.092;8.516;2022-10-03T11:06:47;18.80;64.70
12156;DHT22;6141;49.092;8.516;2022-10-03T11:09:45;19.00;62.60
12156;DHT22;6141;49.092;8.516;2022-10-03T11:19:12;19.00;62.20
12156;DHT22;6141;49.092;8.516;2022-10-03T11:25:45;19.40;59.40
12156;DHT22;6141;49.092;8.516;2022-10-03T11:35:40;19.40;60.20
12156;DHT22;6141;49.092;8.516;2022-10-03T11:38:18;19.40;60.70
12156;DHT22;6141;49.092;8.516;2022-10-03T11:41:04;19.30;57.30
12156;DHT22;6141;49.092;8.516;2022-10-03T11:44:09;19.40;58.20
12156;DHT22;6141;49.092;8.516;2022-10-03T11:47:10;19.00;58.90
12156;DHT22;6141;49.092;8.516;2022-10-03T11:53:00;19.00;59.90
12156;DHT22;6141;49.092;8.516;2022-10-03T11:55:36;18.90;58.60
12156;DHT22;6141;49.092;8.516;2022-10-03T12:03:24;18.90;59.90
12156;DHT22;6141;49.092;8.516;2022-10-03T12:59:35;20.60;46.40
12156;DHT22;6141;49.092;8.516;2022-10-03T13:02:41;20.50;41.90
12156;DHT22;6141;49.092;8.516;2022-10-03T13:06:04;20.20;46.70
12156;DHT22;6141;49.092;8.516;2022-10-03T13:08:53;20.20;45.40
12156;DHT22;6141;49.092;8.516;2022-10-03T13:11:39;20.30;45.90
12156;DHT22;6141;49.092;8.516;2022-10-03T13:14:26;20.10;45.60
12156;DHT22;6141;49.092;8.516;2022-10-03T13:17:11;20.10;42.50
12156;DHT22;6141;49.092;8.516;2022-10-03T13:19:56;20.00;42.10
12156;DHT22;6141;49.092;8.516;2022-10-03T13:22:39;20.00;44.20
12156;DHT22;6141;49.092;8.516;2022-10-03T13:25:16;20.20;40.60
12156;DHT22;6141;49.092;8.516;2022-10-03T13:27:59;20.20;42.40
12156;DHT22;6141;49.092;8.516;2022-10-03T13:30:34;20.10;43.00
12156;DHT22;6141;49.092;8.516;2022-10-03T13:33:15;19.80;41.00
12156;DHT22;6141;49.092;8.516;2022-10-03T13:36:12;19.50;41.60
12156;DHT22;6141;49.092;8.516;2022-10-03T13:39:16;19.40;43.20
12156;DHT22;6141;49.092;8.516;2022-10-03T13:42:05;19.50;45.40
12156;DHT22;6141;49.092;8.516;2022-10-03T13:45:01;19.50;43.60
12156;DHT22;6141;49.092;8.516;2022-10-03T13:47:52;19.80;43.50
12156;DHT22;6141;49.092;8.516;2022-10-03T13:50:57;19.90;43.50
12156;DHT22;6141;49.092;8.516;2022-10-03T13:53:45;20.20;42.40
12156;DHT22;6141;49.092;8.516;2022-10-03T13:56:39;20.40;40.20
12156;DHT22;6141;49.092;8.516;2022-10-03T13:59:31;20.40;40.70
12156;DHT22;6141;49.092;8.516;2022-10-03T14:02:12;20.40;39.20
12156;DHT22;6141;49.092;8.516;2022-10-03T14:05:01;20.50;38.20
12156;DHT22;6141;49.092;8.516;2022-10-03T14:08:02;20.70;39.80
12156;DHT22;6141;49.092;8.516;2022-10-03T14:11:34;20.90;38.00
12156;DHT22;6141;49.092;8.516;2022-10-03T14:14:30;21.30;36.80
12156;DHT22;6141;49.092;8.516;2022-10-03T14:17:10;21.60;33.60
12156;DHT22;6141;49.092;8.516;2022-10-03T14:19:59;21.70;32.90
12156;DHT22;6141;49.092;8.516;2022-10-03T14:27:37;21.70;34.50
12156;DHT22;6141;49.092;8.516;2022-10-03T14:30:14;21.40;33.30
12156;DHT22;6141;49.092;8.516;2022-10-03T14:32:55;21.40;34.30
12156;DHT22;6141;49.092;8.516;2022-10-03T14:35:36;21.50;34.30
12156;DHT22;6141;49.092;8.516;2022-10-03T14:38:44;21.30;36.10
12156;DHT22;6141;49.092;8.516;2022-10-03T14:41:44;21.30;35.40
12156;DHT22;6141;49.092;8.516;2022-10-03T14:44:17;21.20;34.00
12156;DHT22;6141;49.092;8.516;2022-10-03T14:46:54;21.20;33.00
12156;DHT22;6141;49.092;8.516;2022-10-03T14:50:22;21.10;36.80
12156;DHT22;6141;49.092;8.516;2022-10-03T14:54:01;21.10;35.20
12156;DHT22;6141;49.092;8.516;2022-10-03T14:57:34;21.00;36.10
12156;DHT22;6141;49.092;8.516;2022-10-03T15:00:48;21.00;33.90
12156;DHT22;6141;49.092;8.516;2022-10-03T15:04:02;21.20;32.70
12156;DHT22;6141;49.092;8.516;2022-10-03T15:06:50;21.20;30.30
12156;DHT22;6141;49.092;8.516;2022-10-03T15:09:33;21.00;31.60
12156;DHT22;6141;49.092;8.516;2022-10-03T15:12:14;20.90;31.90
12156;DHT22;6141;49.092;8.516;2022-10-03T15:15:08;20.80;33.20
12156;DHT22;6141;49.092;8.516;2022-10-03T15:17:44;20.80;33.70
12156;DHT22;6141;49.092;8.516;2022-10-03T15:20:17;21.00;31.30
12156;DHT22;6141;49.092;8.516;2022-10-03T15:22:50;20.80;32.00
12156;DHT22;6141;49.092;8.516;2022-10-03T15:25:26;20.50;32.70
12156;DHT22;6141;49.092;8.516;2022-10-03T15:28:00;20.50;34.60
12156;DHT22;6141;49.092;8.516;2022-10-03T15:30:33;20.40;34.30
12156;DHT22;6141;49.092;8.516;2022-10-03T15:33:09;20.30;33.40
12156;DHT22;6141;49.092;8.516;2022-10-03T15:35:42;20.20;34.50
12156;DHT22;6141;49.092;8.516;2022-10-03T15:38:21;20.20;34.60
12156;DHT22;6141;49.092;8.516;2022-10-03T15:41:08;20.10;34.60
12156;DHT22;6141;49.092;8.516;2022-10-03T15:43:42;19.80;35.50
12156;DHT22;6141;49.092;8.516;2022-10-03T15:46:32;19.80;36.00
12156;DHT22;6141;49.092;8.516;2022-10-03T15:49:06;19.80;36.60
12156;DHT22;6141;49.092;8.516;2022-10-03T15:51:38;19.50;36.30
12156;DHT22;6141;49.092;8.516;2022-10-03T15:54:22;19.40;36.60
12156;DHT22;6141;49.092;8.516;2022-10-03T15:56:56;19.40;37.20
12156;DHT22;6141;49.092;8.516;2022-10-03T15:59:29;19.40;37.30
12156;DHT22;6141;49.092;8.516;2022-10-03T16:02:13;19.40;36.20
12156;DHT22;6141;49.092;8.516;2022-10-03T16:05:04;19.40;37.30
12156;DHT22;6141;49.092;8.516;2022-10-03T16:07:58;19.30;36.80
12156;DHT22;6141;49.092;8.516;2022-10-03T16:11:08;19.30;38.60
12156;DHT22;6141;49.092;8.516;2022-10-03T16:14:30;19.20;38.30
12156;DHT22;6141;49.092;8.516;2022-10-03T16:17:38;19.20;37.40
12156;DHT22;6141;49.092;8.516;2022-10-03T16:20:17;19.00;36.40
12156;DHT22;6141;49.092;8.516;2022-10-03T16:23:16;18.90;39.40
12156;DHT22;6141;49.092;8.516;2022-10-03T16:25:54;18.90;38.00
12156;DHT22;6141;49.092;8.516;2022-10-03T16:28:49;18.80;38.70
12156;DHT22;6141;49.092;8.516;2022-10-03T16:31:30;18.90;41.10
12156;DHT22;6141;49.092;8.516;2022-10-03T16:34:09;18.90;41.80
12156;DHT22;6141;49.092;8.516;2022-10-03T16:37:01;18.90;42.60
12156;DHT22;6141;49.092;8.516;2022-10-03T16:39:37;18.80;42.90
12156;DHT22;6141;49.092;8.516;2022-10-03T16:42:23;18.80;43.10
12156;DHT22;6141;49.092;8.516;2022-10-03T16:44:54;18.70;42.40
12156;DHT22;6141;49.092;8.516;2022-10-03T16:47:32;18.70;40.80
12156;DHT22;6141;49.092;8.516;2022-10-03T16:50:03;18.70;42.00
12156;DHT22;6141;49.092;8.516;2022-10-03T16:52:52;18.50;41.60
12156;DHT22;6141;49.092;8.516;2022-10-03T16:55:28;18.40;43.30
12156;DHT22;6141;49.092;8.516;2022-10-03T16:58:10;18.20;45.20
12156;DHT22;6141;49.092;8.516;2022-10-03T17:00:50;17.90;45.60
12156;DHT22;6141;49.092;8.516;2022-10-03T17:03:55;17.40;47.00
12156;DHT22;6141;49.092;8.516;2022-10-03T17:06:42;17.10;48.30
12156;DHT22;6141;49.092;8.516;2022-10-03T17:09:30;16.80;50.70
12156;DHT22;6141;49.092;8.516;2022-10-03T17:12:36;16.60;51.40
12156;DHT22;6141;49.092;8.516;2022-10-03T17:15:18;16.40;51.10
12156;DHT22;6141;49.092;8.516;2022-10-03T17:17:49;16.30;51.00
12156;DHT22;6141;49.092;8.516;2022-10-03T17:20:36;16.30;51.60
12156;DHT22;6141;49.092;8.516;2022-10-03T17:23:20;16.10;52.00
12156;DHT22;6141;49.092;8.516;2022-10-03T17:25:59;16.00;52.90
12156;DHT22;6141;49.092;8.516;2022-10-03T17:28:49;15.90;53.70
12156;DHT22;6141;49.092;8.516;2022-10-03T17:31:28;15.80;53.60
12156;DHT22;6141;49.092;8.516;2022-10-03T17:34:09;15.70;53.10
12156;DHT22;6141;49.092;8.516;2022-10-03T17:38:04;15.50;53.70
12156;DHT22;6141;49.092;8.516;2022-10-03T17:41:14;15.30;53.80
12156;DHT22;6141;49.092;8.516;2022-10-03T17:44:10;15.10;55.10
12156;DHT22;6141;49.092;8.516;2022-10-03T17:50:30;15.10;55.00
12156;DHT22;6141;49.092;8.516;2022-10-03T17:53:17;15.00;55.00
12156;DHT22;6141;49.092;8.516;2022-10-03T17:55:54;14.80;54.70
12156;DHT22;6141;49.092;8.516;2022-10-03T17:58:30;14.90;55.40
12156;DHT22;6141;49.092;8.516;2022-10-03T18:01:07;14.80;55.00
12156;DHT22;6141;49.092;8.516;2022-10-03T18:03:43;15.10;53.80
12156;DHT22;6141;49.092;8.516;2022-10-03T18:06:37;14.90;53.50
12156;DHT22;6141;49.092;8.516;2022-10-03T18:09:29;14.70;53.70
12156;DHT22;6141;49.092;8.516;2022-10-03T18:12:08;14.60;54.10
12156;DHT22;6141;49.092;8.516;2022-10-03T18:15:14;14.60;53.80
12156;DHT22;6141;49.092;8.516;2022-10-03T18:18:01;14.60;54.50
12156;DHT22;6141;49.092;8.516;2022-10-03T18:20:49;14.90;53.20
12156;DHT22;6141;49.092;8.516;2022-10-03T18:24:09;14.90;52.70
12156;DHT22;6141;49.092;8.516;2022-10-03T18:27:07;14.80;53.40
12156;DHT22;6141;49.092;8.516;2022-10-03T18:29:45;14.60;53.80
12156;DHT22;6141;49.092;8.516;2022-10-03T18:32:22;14.20;53.50
12156;DHT22;6141;49.092;8.516;2022-10-03T18:36:51;14.10;54.70
12156;DHT22;6141;49.092;8.516;2022-10-03T18:38:38;14.20;55.00
12156;DHT22;6141;49.092;8.516;2022-10-03T18:41:13;14.20;54.50
12156;DHT22;6141;49.092;8.516;2022-10-03T18:43:52;14.00;54.80
12156;DHT22;6141;49.092;8.516;2022-10-03T18:49:53;13.90;54.70
12156;DHT22;6141;49.092;8.516;2022-10-03T18:52:35;13.80;55.30
12156;DHT22;6141;49.092;8.516;2022-10-03T18:55:26;13.60;55.00
12156;DHT22;6141;49.092;8.516;2022-10-03T19:14:03;13.40;54.70
12156;DHT22;6141;49.092;8.516;2022-10-03T19:16:57;13.40;54.80
12156;DHT22;6141;49.092;8.516;2022-10-03T19:19:31;13.60;55.50
12156;DHT22;6141;49.092;8.516;2022-10-03T19:22:04;13.80;53.70
12156;DHT22;6141;49.092;8.516;2022-10-03T19:24:33;13.90;53.30
12156;DHT22;6141;49.092;8.516;2022-10-03T19:27:41;13.90;52.60
12156;DHT22;6141;49.092;8.516;2022-10-03T19:30:17;13.80;52.70
12156;DHT22;6141;49.092;8.516;2022-10-03T19:32:57;13.70;53.00
12156;DHT22;6141;49.092;8.516;2022-10-03T19:36:03;13.60;53.30
12156;DHT22;6141;49.092;8.516;2022-10-03T19:39:04;13.50;53.60
12156;DHT22;6141;49.092;8.516;2022-10-03T19:41:36;13.30;54.10
12156;DHT22;6141;49.092;8.516;2022-10-03T19:44:06;13.00;54.50
12156;DHT22;6141;49.092;8.516;2022-10-03T19:47:00;12.80;55.10
12156;DHT22;6141;49.092;8.516;2022-10-03T19:51:06;12.90;55.70
12156;DHT22;6141;49.092;8.516;2022-10-03T19:56:18;13.10;56.00
12156;DHT22;6141;49.092;8.516;2022-10-03T19:57:48;13.00;54.50
12156;DHT22;6141;49.092;8.516;2022-10-03T20:01:47;13.10;54.30
12156;DHT22;6141;49.092;8.516;2022-10-03T20:09:02;13.60;52.40
12156;DHT22;6141;49.092;8.516;2022-10-03T20:12:07;13.60;51.70
12156;DHT22;6141;49.092;8.516;2022-10-03T20:14:40;13.40;52.20
12156;DHT22;6141;49.092;8.516;2022-10-03T20:17:18;13.30;52.10
12156;DHT22;6141;49.092;8.516;2022-10-03T20:23:39;13.00;52.20
12156;DHT22;6141;49.092;8.516;2022-10-03T20:26:24;12.90;53.20
12156;DHT22;6141;49.092;8.516;2022-10-03T20:29:24;12.90;52.60
12156;DHT22;6141;49.092;8.516;2022-10-03T20:32:13;12.80;52.50
12156;DHT22;6141;49.092;8.516;2022-10-03T20:34:50;13.00;53.20
12156;DHT22;6141;49.092;8.516;2022-10-03T20:37:32;13.00;51.80
12156;DHT22;6141;49.092;8.516;2022-10-03T20:40:26;13.00;52.40
12156;DHT22;6141;49.092;8.516;2022-10-03T20:43:31;12.80;52.30
12156;DHT22;6141;49.092;8.516;2022-10-03T20:47:25;12.90;53.70
12156;DHT22;6141;49.092;8.516;2022-10-03T20:49:36;12.60;51.80
12156;DHT22;6141;49.092;8.516;2022-10-03T20:52:07;12.80;52.90
12156;DHT22;6141;49.092;8.516;2022-10-03T20:54:50;12.90;52.40
12156;DHT22;6141;49.092;8.516;2022-10-03T20:57:26;13.00;51.60
12156;DHT22;6141;49.092;8.516;2022-10-03T21:00:07;13.20;50.80
12156;DHT22;6141;49.092;8.516;2022-10-03T21:02:47;13.10;49.20
12156;DHT22;6141;49.092;8.516;2022-10-03T21:05:20;12.90;50.60
12156;DHT22;6141;49.092;8.516;2022-10-03T21:07:51;12.70;50.80
12156;DHT22;6141;49.092;8.516;2022-10-03T21:10:25;12.70;50.90
12156;DHT22;6141;49.092;8.516;2022-10-03T21:12:56;12.80;51.10
12156;DHT22;6141;49.092;8.516;2022-10-03T21:15:36;12.80;50.50
12156;DHT22;6141;49.092;8.516;2022-10-03T21:18:10;12.70;50.90
12156;DHT22;6141;49.092;8.516;2022-10-03T21:20:40;12.70;51.20
12156;DHT22;6141;49.092;8.516;2022-10-03T21:23:14;12.70;50.20
12156;DHT22;6141;49.092;8.516;2022-10-03T21:25:44;12.60;50.90
12156;DHT22;6141;49.092;8.516;2022-10-03T21:28:22;12.50;50.80
12156;DHT22;6141;49.092;8.516;2022-10-03T21:33:58;12.40;52.40
12156;DHT22;6141;49.092;8.516;2022-10-03T21:36:33;12.30;51.30
12156;DHT22;6141;49.092;8.516;2022-10-03T21:39:14;12.40;51.30
12156;DHT22;6141;49.092;8.516;2022-10-03T21:41:53;12.60;51.00
12156;DHT22;6141;49.092;8.516;2022-10-03T21:44:32;12.70;49.70
12156;DHT22;6141;49.092;8.516;2022-10-03T21:47:16;12.70;49.50
12156;DHT22;6141;49.092;8.516;2022-10-03T21:49:53;12.90;48.90
12156;DHT22;6141;49.092;8.516;2022-10-03T21:52:46;12.90;48.80
12156;DHT22;6141;49.092;8.516;2022-10-03T21:55:32;12.70;49.00
12156;DHT22;6141;49.092;8.516;2022-10-03T21:58:39;12.80;48.80
12156;DHT22;6141;49.092;8.516;2022-10-03T22:01:15;12.90;48.90
12156;DHT22;6141;49.092;8.516;2022-10-03T22:03:55;12.60;47.90
12156;DHT22;6141;49.092;8.516;2022-10-03T22:06:27;12.30;48.60
12156;DHT22;6141;49.092;8.516;2022-10-03T22:09:00;12.30;49.10
12156;DHT22;6141;49.092;8.516;2022-10-03T22:11:35;12.20;49.00
12156;DHT22;6141;49.092;8.516;2022-10-03T22:14:15;12.10;50.30
12156;DHT22;6141;49.092;8.516;2022-10-03T22:16:51;12.30;49.50
12156;DHT22;6141;49.092;8.516;2022-10-03T22:19:32;12.30;48.40
12156;DHT22;6141;49.092;8.516;2022-10-03T22:22:29;12.10;49.60
12156;DHT22;6141;49.092;8.516;2022-10-03T22:25:11;12.00;49.10
12156;DHT22;6141;49.092;8.516;2022-10-03T22:27:50;12.10;49.60
12156;DHT22;6141;49.092;8.516;2022-10-03T22:30:21;12.10;50.10
12156;DHT22;6141;49.092;8.516;2022-10-03T22:33:00;12.20;50.10
12156;DHT22;6141;49.092;8.516;2022-10-03T22:35:52;12.10;49.70
12156;DHT22;6141;49.092;8.516;2022-10-03T22:38:23;11.80;49.80
12156;DHT22;6141;49.092;8.516;2022-10-03T22:41:13;11.80;51.40
12156;DHT22;6141;49.092;8.516;2022-10-03T22:43:43;11.60;50.80
12156;DHT22;6141;49.092;8.516;2022-10-03T22:46:16;11.70;50.60
12156;DHT22;6141;49.092;8.516;2022-10-03T22:48:49;12.10;50.40
12156;DHT22;6141;49.092;8.516;2022-10-03T22:51:21;11.80;49.40
12156;DHT22;6141;49.092;8.516;2022-10-03T22:53:51;11.60;50.10
12156;DHT22;6141;49.092;8.516;2022-10-03T22:56:43;11.30;50.50
12156;DHT22;6141;49.092;8.516;2022-10-03T22:59:17;11.40;51.30
12156;DHT22;6141;49.092;8.516;2022-10-03T23:01:50;11.50;50.80
12156;DHT22;6141;49.092;8.516;2022-10-03T23:04:24;11.60;49.80
12156;DHT22;6141;49.092;8.516;2022-10-03T23:07:11;11.60;49.80
12156;DHT22;6141;49.092;8.516;2022-10-03T23:09:48;11.70;49.80
12156;DHT22;6141;49.092;8.516;2022-10-03T23:12:19;11.70;50.30
12156;DHT22;6141;49.092;8.516;2022-10-03T23:14:49;11.80;49.20
12156;DHT22;6141;49.092;8.516;2022-10-03T23:17:39;11.70;48.70
12156;DHT22;6141;49.092;8.516;2022-10-03T23:20:17;11.80;49.90
12156;DHT22;6141;49.092;8.516;2022-10-03T23:22:53;11.80;48.90
12156;DHT22;6141;49.092;8.516;2022-10-03T23:25:25;12.00;48.60
12156;DHT22;6141;49.092;8.516;2022-10-03T23:28:06;12.20;48.60
12156;DHT22;6141;49.092;8.516;2022-10-03T23:30:48;12.20;49.50
12156;DHT22;6141;49.092;8.516;2022-10-03T23:36:14;12.00;46.60
12156;DHT22;6141;49.092;8.516;2022-10-03T23:38:58;11.90;48.00
12156;DHT22;6141;49.092;8.516;2022-10-03T23:41:42;11.90;49.30
12156;DHT22;6141;49.092;8.516;2022-10-03T23:44:28;11.80;48.70
12156;DHT22;6141;49.092;8.516;2022-10-03T23:46:58;11.60;50.30
12156;DHT22;6141;49.092;8.516;2022-10-03T23:49:28;11.70;51.80
12156;DHT22;6141;49.092;8.516;2022-10-03T23:51:56;11.80;53.00
12156;DHT22;6141;49.092;8.516;2022-10-03T23:54:26;11.90;52.60
12156;DHT22;6141;49.092;8.516;2022-10-03T23:57:03;11.90;52.60
12156;DHT22;6141;49.092;8.516;2022-10-03T23:59:34;12.00;52.80
